createdAt,value
2022-10-11T00:00:21.419Z,16.72
2022-10-11T00:02:48.795Z,16.68
2022-10-11T00:05:16.250Z,16.55
2022-10-11T00:07:43.658Z,16.55
2022-10-11T00:10:11.237Z,16.63
2022-10-11T00:12:38.772Z,16.59
2022-10-11T00:15:07.296Z,16.69
2022-10-11T00:17:35.710Z,16.79
2022-10-11T00:20:03.104Z,16.87
2022-10-11T00:22:30.419Z,16.88
2022-10-11T00:24:59.055Z,16.80
2022-10-11T00:27:26.438Z,16.71
2022-10-11T00:29:54.044Z,16.71
2022-10-11T00:32:21.439Z,16.88
2022-10-11T00:34:48.957Z,16.89
2022-10-11T00:37:16.446Z,16.75
2022-10-11T00:39:43.821Z,16.89
2022-10-11T00:42:16.708Z,16.96
2022-10-11T00:44:47.006Z,16.83
2022-10-11T00:47:24.857Z,16.83
2022-10-11T00:49:59.574Z,16.83
2022-10-11T00:52:41.141Z,16.84
2022-10-11T00:55:19.048Z,16.84
2022-10-11T00:57:49.963Z,16.88
2022-10-11T01:00:17.300Z,16.86
2022-10-11T01:02:44.834Z,16.71
2022-10-11T01:05:32.455Z,16.68
2022-10-11T01:08:01.012Z,16.62
2022-10-11T01:10:29.220Z,16.61
2022-10-11T01:13:00.557Z,16.67
2022-10-11T01:16:00.034Z,16.66
2022-10-11T01:19:00.037Z,16.66
2022-10-11T01:21:49.004Z,16.66
2022-10-11T01:24:26.455Z,16.46
2022-10-11T01:27:11.817Z,16.35
2022-10-11T01:29:57.506Z,16.29
2022-10-11T01:32:34.304Z,16.26
2022-10-11T01:35:17.532Z,16.32
2022-10-11T01:37:51.402Z,16.32
2022-10-11T01:40:42.649Z,16.24
2022-10-11T01:43:10.713Z,16.27
2022-10-11T01:45:39.357Z,16.23
2022-10-11T01:48:12.941Z,16.21
2022-10-11T01:50:48.051Z,16.31
2022-10-11T01:53:48.625Z,16.31
2022-10-11T01:56:35.299Z,16.28
2022-10-11T01:59:31.929Z,16.27
2022-10-11T02:02:22.621Z,16.24
2022-10-11T02:05:03.047Z,16.29
2022-10-11T02:07:50.570Z,16.31
2022-10-11T02:10:25.010Z,16.13
2022-10-11T02:13:02.789Z,16.07
2022-10-11T02:15:32.523Z,15.94
2022-10-11T02:18:03.108Z,15.90
2022-10-11T02:20:34.652Z,16.09
2022-10-11T02:23:13.926Z,16.18
2022-10-11T02:25:43.190Z,16.23
2022-10-11T02:28:17.215Z,16.23
2022-10-11T02:30:47.531Z,16.15
2022-10-11T02:33:18.795Z,16.20
2022-10-11T02:35:54.756Z,16.03
2022-10-11T02:38:31.147Z,16.17
2022-10-11T02:41:12.802Z,16.08
2022-10-11T02:43:47.231Z,15.84
2022-10-11T02:46:17.584Z,15.89
2022-10-11T02:48:45.059Z,15.79
2022-10-11T02:51:14.556Z,15.89
2022-10-11T02:53:41.837Z,15.80
2022-10-11T02:56:09.191Z,15.83
2022-10-11T02:58:36.518Z,15.88
2022-10-11T03:01:04.069Z,15.79
2022-10-11T03:03:31.438Z,15.88
2022-10-11T03:06:03.958Z,15.82
2022-10-11T03:08:31.828Z,15.81
2022-10-11T03:10:59.156Z,15.82
2022-10-11T03:13:26.646Z,15.89
2022-10-11T03:16:02.684Z,15.96
2022-10-11T03:18:31.256Z,15.95
2022-10-11T03:20:58.675Z,15.94
2022-10-11T03:23:25.966Z,15.98
2022-10-11T03:25:53.364Z,16.02
2022-10-11T03:28:21.116Z,16.37
2022-10-11T03:30:49.716Z,16.45
2022-10-11T03:33:17.719Z,16.60
2022-10-11T03:35:46.214Z,16.66
2022-10-11T03:38:15.161Z,16.65
2022-10-11T03:40:43.682Z,16.60
2022-10-11T03:43:11.921Z,16.50
2022-10-11T03:45:39.715Z,16.43
2022-10-11T03:48:07.176Z,16.48
2022-10-11T03:50:34.749Z,16.55
2022-10-11T03:53:02.236Z,16.60
2022-10-11T03:55:29.532Z,16.59
2022-10-11T03:57:56.950Z,16.45
2022-10-11T04:00:24.376Z,16.53
2022-10-11T04:02:51.693Z,16.57
2022-10-11T04:05:19.081Z,16.68
2022-10-11T04:07:46.318Z,16.66
2022-10-11T04:10:14.823Z,16.66
2022-10-11T04:12:42.233Z,16.66
2022-10-11T04:15:14.802Z,16.61
2022-10-11T04:17:42.390Z,16.61
2022-10-11T04:20:10.165Z,16.59
2022-10-11T04:22:41.536Z,16.50
2022-10-11T04:25:09.655Z,16.52
2022-10-11T04:27:37.014Z,15.93
2022-10-11T04:30:04.786Z,16.57
2022-10-11T04:32:32.164Z,16.50
2022-10-11T04:34:59.447Z,16.50
2022-10-11T04:37:26.770Z,16.45
2022-10-11T04:39:54.057Z,16.45
2022-10-11T04:42:21.547Z,16.44
2022-10-11T04:44:48.921Z,16.50
2022-10-11T04:47:16.107Z,16.56
2022-10-11T04:49:43.470Z,16.61
2022-10-11T04:52:10.713Z,16.59
2022-10-11T04:54:38.139Z,16.64
2022-10-11T04:57:05.901Z,16.68
2022-10-11T04:59:33.296Z,16.51
2022-10-11T05:02:00.686Z,16.35
2022-10-11T05:04:28.459Z,16.20
2022-10-11T05:06:55.826Z,16.04
2022-10-11T05:09:23.457Z,15.91
2022-10-11T05:11:50.839Z,15.85
2022-10-11T05:14:18.239Z,16.02
2022-10-11T05:16:45.516Z,15.99
2022-10-11T05:19:12.960Z,15.97
2022-10-11T05:21:40.395Z,16.30
2022-10-11T05:24:08.283Z,16.32
2022-10-11T05:26:35.888Z,16.27
2022-10-11T05:29:03.871Z,16.37
2022-10-11T05:31:31.332Z,16.41
2022-10-11T05:33:58.661Z,16.38
2022-10-11T05:36:26.316Z,16.36
2022-10-11T05:38:53.588Z,16.28
2022-10-11T05:41:20.952Z,16.22
2022-10-11T05:43:48.416Z,16.20
2022-10-11T05:46:15.836Z,16.17
2022-10-11T05:48:43.166Z,16.22
2022-10-11T05:51:12.683Z,16.21
2022-10-11T05:53:40.196Z,16.27
2022-10-11T05:56:19.809Z,16.19
2022-10-11T05:58:47.517Z,16.13
2022-10-11T06:01:32.748Z,16.19
2022-10-11T06:04:00.387Z,16.15
2022-10-11T06:06:27.801Z,16.05
2022-10-11T06:08:55.578Z,15.91
2022-10-11T06:11:26.251Z,15.81
2022-10-11T06:13:55.445Z,16.01
2022-10-11T06:16:22.856Z,16.00
2022-10-11T06:18:53.788Z,15.98
2022-10-11T06:21:23.564Z,15.87
2022-10-11T06:23:54.569Z,15.95
2022-10-11T06:26:24.561Z,16.07
2022-10-11T06:28:52.001Z,16.15
2022-10-11T06:31:19.666Z,16.19
2022-10-11T06:33:46.968Z,16.07
2022-10-11T06:36:15.183Z,16.01
2022-10-11T06:38:45.256Z,16.00
2022-10-11T06:41:25.402Z,16.06
2022-10-11T06:43:53.007Z,15.95
2022-10-11T06:46:21.725Z,15.86
2022-10-11T06:48:49.479Z,15.93
2022-10-11T06:51:21.405Z,15.89
2022-10-11T06:53:53.681Z,15.82
2022-10-11T06:56:21.602Z,15.90
2022-10-11T06:58:48.996Z,16.00
2022-10-11T07:01:20.291Z,16.14
2022-10-11T07:03:48.870Z,16.19
2022-10-11T07:06:18.972Z,16.20
2022-10-11T07:08:47.202Z,16.24
2022-10-11T07:11:20.895Z,16.33
2022-10-11T07:13:53.877Z,16.39
2022-10-11T07:16:22.210Z,16.39
2022-10-11T07:18:59.543Z,16.40
2022-10-11T07:21:29.365Z,16.48
2022-10-11T07:23:56.865Z,16.56
2022-10-11T07:26:24.178Z,16.76
2022-10-11T07:28:51.998Z,16.84
2022-10-11T07:31:22.742Z,16.92
2022-10-11T07:33:50.386Z,17.08
2022-10-11T07:36:17.932Z,17.25
2022-10-11T07:38:47.275Z,17.58
2022-10-11T07:41:14.891Z,17.75
2022-10-11T07:43:43.780Z,17.91
2022-10-11T07:46:11.580Z,18.02
2022-10-11T07:48:40.375Z,18.11
2022-10-11T07:51:15.524Z,18.10
2022-10-11T07:53:45.450Z,18.09
2022-10-11T07:56:16.030Z,18.08
2022-10-11T07:58:43.908Z,18.01
2022-10-11T08:01:12.176Z,17.84
2022-10-11T08:03:39.698Z,17.64
2022-10-11T08:06:09.996Z,17.43
2022-10-11T08:08:38.263Z,17.36
2022-10-11T08:11:06.488Z,17.33
2022-10-11T08:13:34.542Z,17.40
2022-10-11T08:16:09.953Z,17.44
2022-10-11T08:18:37.290Z,17.50
2022-10-11T08:21:12.333Z,17.40
2022-10-11T08:23:40.194Z,17.16
2022-10-11T08:26:08.547Z,17.04
2022-10-11T08:28:36.570Z,17.02
2022-10-11T08:31:04.482Z,17.04
2022-10-11T08:33:31.893Z,16.93
2022-10-11T08:35:59.215Z,16.99
2022-10-11T08:38:26.503Z,17.10
2022-10-11T08:40:56.616Z,17.24
2022-10-11T08:43:45.383Z,17.41
2022-10-11T08:46:15.477Z,17.40
2022-10-11T08:48:50.432Z,17.64
2022-10-11T08:51:26.603Z,17.62
2022-10-11T08:54:12.722Z,17.61
2022-10-11T08:56:43.431Z,17.74
2022-10-11T08:59:13.779Z,17.93
2022-10-11T09:01:50.409Z,18.08
2022-10-11T09:04:18.592Z,18.23
2022-10-11T09:07:01.300Z,18.39
2022-10-11T09:10:08.108Z,18.47
2022-10-11T09:12:50.343Z,18.48
2022-10-11T09:15:26.721Z,18.42
2022-10-11T09:18:02.549Z,18.47
2022-10-11T09:20:59.568Z,18.45
2022-10-11T09:23:59.932Z,18.46
2022-10-11T09:26:43.823Z,18.51
2022-10-11T09:29:50.739Z,18.54
2022-10-11T09:32:23.148Z,18.54
2022-10-11T09:35:02.563Z,18.45
2022-10-11T09:37:42.545Z,18.37
2022-10-11T09:40:38.910Z,18.33
2022-10-11T09:43:06.337Z,18.29
2022-10-11T09:45:33.640Z,18.27
2022-10-11T09:48:03.202Z,18.19
2022-10-11T09:50:32.061Z,17.92
2022-10-11T09:53:03.643Z,17.91
2022-10-11T09:55:33.685Z,17.99
2022-10-11T09:58:05.058Z,18.06
2022-10-11T10:00:34.274Z,18.12
2022-10-11T10:03:04.113Z,18.11
2022-10-11T10:05:34.233Z,18.09
2022-10-11T10:08:23.676Z,18.06
2022-10-11T10:10:59.390Z,18.22
2022-10-11T10:13:43.648Z,18.39
2022-10-11T10:16:23.156Z,18.60
2022-10-11T10:18:54.781Z,19.07
2022-10-11T10:21:45.188Z,19.28
2022-10-11T10:24:40.518Z,19.69
2022-10-11T10:27:18.405Z,19.68
2022-10-11T10:30:09.303Z,19.69
2022-10-11T10:32:48.532Z,19.48
2022-10-11T10:35:35.082Z,19.40
2022-10-11T10:38:30.671Z,19.38
2022-10-11T10:41:01.856Z,19.40
2022-10-11T10:43:38.141Z,19.48
2022-10-11T10:46:29.588Z,19.42
2022-10-11T10:49:54.686Z,19.37
2022-10-11T10:52:28.540Z,19.53
2022-10-11T10:55:20.028Z,19.64
2022-10-11T10:58:12.899Z,19.73
2022-10-11T11:01:10.878Z,19.63
2022-10-11T11:03:46.917Z,19.48
2022-10-11T11:06:37.339Z,19.29
2022-10-11T11:09:14.109Z,19.47
2022-10-11T11:11:50.452Z,19.49
2022-10-11T11:14:44.279Z,19.47
2022-10-11T11:17:24.431Z,19.31
2022-10-11T11:20:03.388Z,19.28
2022-10-11T11:23:09.341Z,19.29
2022-10-11T11:26:01.453Z,19.36
2022-10-11T11:29:11.653Z,19.18
2022-10-11T11:31:59.549Z,19.14
2022-10-11T11:34:38.630Z,19.00
2022-10-11T11:37:22.253Z,18.86
2022-10-11T11:39:52.657Z,18.95
2022-10-11T11:42:26.569Z,18.70
2022-10-11T11:44:54.145Z,18.64
2022-10-11T11:47:26.981Z,18.37
2022-10-11T11:49:58.886Z,18.27
2022-10-11T11:52:32.138Z,18.19
2022-10-11T11:55:10.934Z,18.23
2022-10-11T11:58:13.393Z,18.18
2022-10-11T12:00:52.385Z,18.18
2022-10-11T12:03:26.473Z,18.29
2022-10-11T12:06:12.728Z,18.23
2022-10-11T12:08:42.936Z,18.03
2022-10-11T12:11:21.357Z,17.87
2022-10-11T12:13:51.270Z,17.85
2022-10-11T12:16:19.730Z,18.00
2022-10-11T12:19:02.370Z,17.92
2022-10-11T12:21:43.652Z,17.83
2022-10-11T12:24:51.569Z,17.81
2022-10-11T12:27:41.325Z,17.88
2022-10-11T12:30:54.780Z,17.94
2022-10-11T12:33:33.316Z,17.93
2022-10-11T12:36:22.126Z,17.91
2022-10-11T12:39:21.511Z,17.90
2022-10-11T12:41:51.795Z,17.77
2022-10-11T12:44:19.023Z,17.75
2022-10-11T12:46:55.234Z,17.92
2022-10-11T12:49:44.408Z,17.94
2022-10-11T12:52:17.960Z,17.82
2022-10-11T12:55:03.740Z,17.67
2022-10-11T12:57:49.591Z,17.54
2022-10-11T13:00:29.930Z,17.67
2022-10-11T13:03:01.715Z,17.62
2022-10-11T13:05:52.371Z,17.67
2022-10-11T13:08:33.957Z,17.41
2022-10-11T13:11:12.242Z,17.36
2022-10-11T13:13:44.370Z,17.31
2022-10-11T13:16:18.507Z,17.25
2022-10-11T13:18:49.268Z,17.21
2022-10-11T13:21:32.121Z,17.07
2022-10-11T13:24:02.936Z,17.01
2022-10-11T13:26:31.818Z,16.98
2022-10-11T13:29:00.829Z,16.93
2022-10-11T13:31:28.441Z,16.90
2022-10-11T13:33:59.349Z,16.88
2022-10-11T13:36:27.787Z,16.81
2022-10-11T13:38:58.549Z,16.82
2022-10-11T13:41:28.362Z,16.90
2022-10-11T13:43:57.660Z,16.97
2022-10-11T13:46:28.187Z,17.05
2022-10-11T13:49:37.236Z,17.16
2022-10-11T13:52:28.398Z,17.28
2022-10-11T13:55:08.034Z,17.31
2022-10-11T13:57:38.242Z,17.22
2022-10-11T14:00:10.901Z,17.08
2022-10-11T14:02:39.346Z,17.09
2022-10-11T14:05:07.007Z,17.11
2022-10-11T14:07:39.133Z,17.29
2022-10-11T14:10:07.670Z,17.27
2022-10-11T14:12:44.574Z,17.13
2022-10-11T14:15:38.417Z,17.31
2022-10-11T14:18:37.565Z,17.22
2022-10-11T14:21:20.179Z,17.14
2022-10-11T14:23:51.753Z,17.09
2022-10-11T14:26:20.606Z,17.12
2022-10-11T14:28:59.779Z,17.15
2022-10-11T14:31:30.462Z,17.13
2022-10-11T14:33:58.631Z,17.13
2022-10-11T14:36:26.326Z,17.15
2022-10-11T14:38:54.281Z,17.14
2022-10-11T14:41:22.019Z,17.30
2022-10-11T14:43:49.833Z,17.39
2022-10-11T14:46:27.630Z,17.46
2022-10-11T14:48:56.584Z,17.53
2022-10-11T14:51:31.561Z,17.58
2022-10-11T14:53:59.095Z,17.54
2022-10-11T14:56:26.371Z,17.62
2022-10-11T14:58:53.712Z,17.66
2022-10-11T15:01:21.229Z,17.68
2022-10-11T15:03:48.809Z,17.66
2022-10-11T15:06:30.366Z,17.67
2022-10-11T15:08:57.919Z,17.65
2022-10-11T15:11:26.767Z,17.67
2022-10-11T15:13:54.272Z,17.55
2022-10-11T15:16:22.433Z,17.55
2022-10-11T15:18:52.889Z,17.52
2022-10-11T15:21:22.613Z,17.46
2022-10-11T15:23:51.020Z,17.12
2022-10-11T15:26:24.192Z,17.06
2022-10-11T15:28:53.574Z,17.06
2022-10-11T15:31:21.757Z,17.04
2022-10-11T15:33:49.818Z,16.90
2022-10-11T15:36:22.550Z,16.85
2022-10-11T15:38:50.185Z,16.88
2022-10-11T15:41:19.154Z,16.67
2022-10-11T15:43:48.545Z,16.76
2022-10-11T15:46:22.351Z,16.72
2022-10-11T15:48:51.350Z,16.80
2022-10-11T15:51:19.434Z,16.75
2022-10-11T15:53:47.448Z,16.79
2022-10-11T15:56:18.896Z,16.77
2022-10-11T15:58:46.755Z,16.73
2022-10-11T16:01:17.728Z,16.67
2022-10-11T16:03:49.032Z,16.67
2022-10-11T16:06:17.548Z,16.66
2022-10-11T16:08:45.226Z,16.74
2022-10-11T16:11:13.501Z,16.70
2022-10-11T16:13:41.138Z,16.77
2022-10-11T16:16:09.942Z,16.75
2022-10-11T16:18:37.840Z,16.75
2022-10-11T16:21:11.322Z,16.77
2022-10-11T16:23:39.248Z,16.63
2022-10-11T16:26:10.017Z,16.65
2022-10-11T16:28:38.102Z,16.51
2022-10-11T16:31:10.501Z,16.47
2022-10-11T16:33:46.270Z,16.47
2022-10-11T16:36:51.770Z,16.29
2022-10-11T16:39:20.088Z,16.28
2022-10-11T16:41:47.931Z,16.27
2022-10-11T16:44:17.027Z,16.33
2022-10-11T16:46:48.774Z,16.25
2022-10-11T16:49:18.091Z,16.25
2022-10-11T16:51:45.618Z,16.27
2022-10-11T16:54:16.601Z,16.27
2022-10-11T16:56:47.014Z,16.22
2022-10-11T16:59:14.367Z,16.25
2022-10-11T17:01:42.080Z,16.25
2022-10-11T17:04:09.999Z,16.26
2022-10-11T17:06:38.008Z,16.25
2022-10-11T17:09:05.498Z,16.25
2022-10-11T17:11:33.302Z,16.24
2022-10-11T17:14:02.042Z,16.13
2022-10-11T17:16:29.800Z,16.03
2022-10-11T17:18:57.168Z,16.19
2022-10-11T17:21:24.720Z,16.08
2022-10-11T17:23:52.241Z,16.05
2022-10-11T17:26:25.090Z,16.03
2022-10-11T17:28:54.953Z,16.10
2022-10-11T17:31:23.117Z,16.04
2022-10-11T17:33:51.199Z,16.04
2022-10-11T17:36:24.905Z,15.90
2022-10-11T17:38:56.139Z,15.98
2022-10-11T17:41:29.468Z,15.99
2022-10-11T17:43:59.701Z,15.93
2022-10-11T17:46:28.424Z,15.82
2022-10-11T17:48:55.976Z,15.97
2022-10-11T17:51:23.542Z,16.02
2022-10-11T17:53:51.758Z,16.06
2022-10-11T17:56:26.741Z,15.99
2022-10-11T17:58:57.430Z,15.91
2022-10-11T18:01:28.324Z,15.78
2022-10-11T18:04:04.974Z,15.82
2022-10-11T18:06:38.374Z,15.97
2022-10-11T18:09:06.281Z,15.95
2022-10-11T18:11:33.692Z,15.94
2022-10-11T18:14:01.963Z,15.95
2022-10-11T18:16:30.725Z,15.91
2022-10-11T18:18:58.985Z,15.82
2022-10-11T18:21:33.632Z,15.90
2022-10-11T18:24:08.178Z,15.90
2022-10-11T18:26:35.666Z,15.91
2022-10-11T18:29:04.093Z,15.87
2022-10-11T18:31:34.508Z,15.80
2022-10-11T18:34:03.369Z,15.76
2022-10-11T18:36:32.198Z,15.84
2022-10-11T18:39:03.170Z,15.76
2022-10-11T18:41:32.375Z,15.73
2022-10-11T18:44:02.648Z,15.78
2022-10-11T18:46:30.863Z,15.73
2022-10-11T18:48:59.884Z,15.71
2022-10-11T18:51:33.839Z,15.70
2022-10-11T18:54:01.765Z,15.74
2022-10-11T18:56:30.716Z,15.70
2022-10-11T18:58:59.402Z,15.71
2022-10-11T19:01:30.321Z,15.73
2022-10-11T19:04:00.108Z,15.64
2022-10-11T19:06:49.304Z,15.64
2022-10-11T19:09:22.686Z,15.77
2022-10-11T19:11:51.446Z,15.70
2022-10-11T19:14:21.017Z,15.73
2022-10-11T19:16:51.807Z,15.69
2022-10-11T19:19:37.319Z,15.67
2022-10-11T19:22:05.091Z,15.36
2022-10-11T19:24:32.847Z,15.59
2022-10-11T19:27:02.796Z,15.39
2022-10-11T19:29:31.306Z,15.63
2022-10-11T19:32:01.117Z,15.50
2022-10-11T19:34:29.078Z,15.61
2022-10-11T19:36:57.290Z,15.65
2022-10-11T19:39:25.038Z,15.59
2022-10-11T19:41:52.937Z,15.53
2022-10-11T19:44:20.477Z,15.52
2022-10-11T19:46:52.353Z,15.60
2022-10-11T19:49:24.287Z,15.58
2022-10-11T19:51:52.199Z,15.45
2022-10-11T19:54:20.076Z,15.56
2022-10-11T19:56:48.082Z,15.64
2022-10-11T19:59:16.059Z,15.64
2022-10-11T20:01:47.917Z,15.55
2022-10-11T20:04:39.508Z,15.51
2022-10-11T20:07:06.073Z,15.59
2022-10-11T20:09:33.578Z,15.56
2022-10-11T20:12:01.070Z,15.47
2022-10-11T20:14:28.520Z,15.49
2022-10-11T20:16:55.793Z,15.56
2022-10-11T20:19:29.333Z,15.55
2022-10-11T20:21:58.193Z,15.53
2022-10-11T20:24:27.660Z,15.49
2022-10-11T20:26:55.811Z,15.51
2022-10-11T20:29:26.726Z,15.36
2022-10-11T20:31:54.191Z,15.33
2022-10-11T20:34:21.516Z,15.46
2022-10-11T20:36:49.478Z,15.45
2022-10-11T20:39:17.271Z,15.45
2022-10-11T20:41:44.617Z,15.20
2022-10-11T20:44:13.400Z,15.47
2022-10-11T20:46:40.804Z,15.49
2022-10-11T20:49:11.508Z,15.46
2022-10-11T20:51:40.385Z,15.48
2022-10-11T20:54:08.098Z,15.50
2022-10-11T20:56:35.932Z,15.49
2022-10-11T20:59:03.568Z,15.45
2022-10-11T21:01:37.238Z,15.47
2022-10-11T21:04:05.136Z,15.44
2022-10-11T21:06:34.305Z,15.26
2022-10-11T21:09:01.901Z,15.39
2022-10-11T21:11:31.603Z,15.41
2022-10-11T21:14:00.621Z,15.40
2022-10-11T21:16:28.701Z,15.37
2022-10-11T21:18:58.309Z,15.40
2022-10-11T21:21:26.680Z,15.43
2022-10-11T21:23:59.342Z,15.38
2022-10-11T21:26:27.738Z,15.36
2022-10-11T21:28:55.234Z,15.25
2022-10-11T21:31:23.910Z,15.39
2022-10-11T21:33:51.424Z,15.35
2022-10-11T21:36:24.996Z,15.39
2022-10-11T21:38:53.812Z,15.37
2022-10-11T21:41:23.988Z,15.39
2022-10-11T21:43:51.753Z,15.36
2022-10-11T21:46:47.551Z,15.33
2022-10-11T21:49:15.544Z,15.37
2022-10-11T21:51:43.017Z,15.36
2022-10-11T21:54:10.866Z,15.20
2022-10-11T21:56:38.198Z,15.36
2022-10-11T21:59:08.076Z,15.35
2022-10-11T22:01:38.627Z,15.34
2022-10-11T22:04:07.779Z,15.35
2022-10-11T22:06:36.009Z,15.17
2022-10-11T22:09:04.226Z,15.37
2022-10-11T22:11:31.926Z,15.31
2022-10-11T22:13:59.322Z,15.38
2022-10-11T22:16:26.660Z,15.40
2022-10-11T22:18:54.599Z,15.51
2022-10-11T22:21:23.726Z,15.56
2022-10-11T22:23:53.146Z,15.60
2022-10-11T22:26:26.253Z,15.62
2022-10-11T22:28:53.831Z,15.59
2022-10-11T22:31:23.436Z,15.66
2022-10-11T22:33:58.495Z,15.66
2022-10-11T22:36:26.857Z,15.75
2022-10-11T22:38:54.431Z,15.82
2022-10-11T22:41:22.051Z,15.85
2022-10-11T22:43:50.095Z,15.86
2022-10-11T22:46:17.661Z,15.85
2022-10-11T22:48:44.948Z,15.81
2022-10-11T22:51:12.440Z,15.81
2022-10-11T22:53:41.198Z,15.82
2022-10-11T22:56:09.174Z,15.80
2022-10-11T22:58:36.777Z,15.78
2022-10-11T23:01:09.131Z,15.86
2022-10-11T23:03:36.719Z,15.89
2022-10-11T23:06:04.378Z,15.95
2022-10-11T23:08:31.821Z,15.81
2022-10-11T23:11:04.447Z,15.93
2022-10-11T23:13:31.810Z,16.01
2022-10-11T23:15:59.161Z,16.00
2022-10-11T23:18:26.482Z,16.08
2022-10-11T23:20:53.823Z,16.14
2022-10-11T23:23:21.220Z,16.12
2022-10-11T23:25:48.486Z,16.16
2022-10-11T23:28:15.948Z,16.18
2022-10-11T23:30:43.280Z,16.13
2022-10-11T23:33:10.740Z,16.18
2022-10-11T23:35:38.035Z,16.23
2022-10-11T23:38:05.485Z,16.22
2022-10-11T23:40:33.783Z,16.25
2022-10-11T23:43:01.133Z,16.18
2022-10-11T23:45:28.664Z,16.09
2022-10-11T23:47:56.137Z,16.11
2022-10-11T23:50:25.026Z,16.22
2022-10-11T23:52:52.510Z,16.19
2022-10-11T23:55:19.857Z,16.18
2022-10-11T23:57:47.243Z,16.19
